Latest Weather Observations for Port Lincoln Airport

IDS60801

Issued at 5:02 am CDT Thursday 5 March 2015 (issued every 30 minutes, with the page automatically refreshed every 10 minutes)

About weather observations | Map of weather stations | Latest weather observations for SA | Other Formats
Station Details ID: 018192 Name: PORT LINCOLN AWS Lat: -34.60 Lon: 135.88 Height: 8.5 m
Data from the previous 72 hours. | See also: Recent months at Port Lincoln Airport
Date/Time
CDT
Temp
°C
App
Temp
°C
Dew
Point
Rel
Hum
%
Delta-T
°C
Wind Press
QNH
hPa
Press
MSL
hPa
Rain
since 9 am
mm
Dir
 
Spd
km/h
Gust
km/h
Spd
kts
Gust
kts
05/05:00am 17.1 11.6 10.7 66 3.4 S 30 41 16 22 1021.8 1021.8 0.0
05/04:30am 16.9 11.0 11.2 69 3.1 S 33 43 18 23 1021.6 1021.6 0.0
05/04:00am 17.0 13.0 11.7 71 2.9 SSW 24 32 13 17 1021.3 1021.3 0.0
05/03:30am 17.0 11.8 11.5 70 3.0 SSW 30 41 16 22 1021.3 1021.3 0.0
05/03:00am 17.4 12.0 12.9 75 2.5 S 33 43 18 23 1021.3 1021.3 0.0
05/02:30am 17.1 13.4 12.8 76 2.4 SSW 24 43 13 23 1021.5 1021.5 0.0
05/02:00am 17.1 14.6 14.0 82 1.8 SSW 20 26 11 14 1021.7 1021.7 0.0
05/01:30am 16.5 13.8 13.6 83 1.6 SSW 20 26 11 14 1021.6 1021.6 0.0
05/01:00am 16.8 13.7 14.4 86 1.4 SW 24 41 13 22 1021.7 1021.7 0.0
05/12:30am 16.7 14.5 14.9 89 1.0 WSW 20 28 11 15 1021.4 1021.4 0.0
05/12:00am 16.7 14.5 14.9 89 1.0 WSW 20 28 11 15 1021.3 1021.3 0.0
 
Date/Time
CDT
Temp
°C
App
Temp
°C
Dew
Point
Rel
Hum
%
Delta-T
°C
Wind Press
QNH
hPa
Press
MSL
hPa
Rain
since 9 am
mm
Dir
 
Spd
km/h
Gust
km/h
Spd
kts
Gust
kts
04/11:30pm 16.6 14.2 14.4 87 1.3 W 20 24 11 13 1020.9 1020.9 0.0
04/11:00pm 16.5 14.5 14.0 85 1.4 W 17 20 9 11 1020.9 1020.9 0.0
04/10:30pm 17.1 15.7 14.4 84 1.5 WSW 15 20 8 11 1021.0 1021.0 0.0
04/10:00pm 17.6 15.4 15.0 85 1.5 SW 20 33 11 18 1020.9 1020.9 0.0
04/09:30pm 18.8 15.7 13.4 71 3.1 WSW 22 32 12 17 1020.4 1020.4 0.0
04/09:00pm 18.7 15.9 13.3 71 3.0 WSW 20 28 11 15 1020.1 1020.1 0.0
04/08:30pm 18.9 15.3 13.1 69 3.3 WSW 24 37 13 20 1020.0 1020.0 0.0
04/08:00pm 18.9 14.0 12.6 67 3.5 WSW 30 41 16 22 1019.5 1019.5 0.0
04/07:50pm 19.0 14.1 12.5 66 3.6 WSW 30 48 16 26 1019.3 1019.3 0.0
04/07:30pm 19.4 14.0 12.2 63 4.0 WSW 32 43 17 23 1019.1 1019.1 0.0
04/07:00pm 19.7 14.2 12.0 61 4.3 WSW 32 41 17 22 1019.0 1019.0 0.0
04/06:30pm 20.3 15.0 11.2 56 5.0 WSW 30 39 16 21 1018.8 1018.8 0.0
04/06:00pm 20.4 15.2 11.6 57 4.9 WSW 30 41 16 22 1018.8 1018.8 0.0
04/05:30pm 21.5 15.6 10.6 50 5.9 WSW 32 41 17 22 1018.4 1018.4 0.0
04/05:04pm 22.4 16.2 10.2 46 6.6 W 33 52 18 28 1018.4 1018.4 0.0
04/05:00pm 22.8 17.4 10.9 47 6.6 WSW 30 41 16 22 1018.3 1018.3 0.0
04/04:30pm 22.7 17.4 11.1 48 6.4 WSW 30 41 16 22 1018.3 1018.3 0.0
04/04:00pm 22.6 18.5 11.4 49 6.3 WSW 24 37 13 20 1018.5 1018.5 0.0
04/03:30pm 22.3 16.3 10.8 48 6.3 SW 33 44 18 24 1018.8 1018.8 0.0
04/03:00pm 23.1 18.3 10.2 44 7.0 SW 26 37 14 20 1018.9 1018.9 0.0
04/02:30pm 23.4 19.1 10.8 45 7.0 SW 24 37 13 20 1019.2 1019.2 0.0
04/02:00pm 22.3 18.3 9.1 43 7.1 WSW 20 32 11 17 1019.5 1019.5 0.0
04/01:30pm 22.1 17.4 10.6 48 6.3 WSW 26 35 14 19 1019.7 1019.7 0.0
04/01:00pm 21.8 17.5 10.6 49 6.1 SW 24 37 13 20 1019.7 1019.7 0.0
04/12:30pm 22.6 18.7 10.7 47 6.5 SW 22 30 12 16 1020.0 1020.0 0.0
04/12:00pm 21.4 17.4 10.3 49 6.0 SW 22 35 12 19 1020.1 1020.1 0.0
04/11:30am 21.5 18.3 10.0 48 6.2 W 17 28 9 15 1020.2 1020.2 0.0
04/11:00am 21.3 18.3 10.5 50 5.9 WSW 17 26 9 14 1020.3 1020.3 0.0
04/10:30am 20.5 17.4 10.3 52 5.5 WSW 17 24 9 13 1020.2 1020.2 0.0
04/10:00am 19.2 15.4 9.9 55 5.0 SSW 20 24 11 13 1020.5 1020.5 0.0
04/09:30am 18.0 14.3 9.6 58 4.4 WSW 19 26 10 14 1020.7 1020.7 0.0
04/09:00am 17.5 14.3 10.1 62 3.9 SW 17 24 9 13 1020.4 1020.4 0.0
04/08:30am 16.7 14.6 11.0 69 3.0 SW 13 19 7 10 1020.2 1020.2 0.0
04/08:00am 15.8 14.2 11.4 75 2.4 WSW 11 17 6 9 1019.9 1019.9 0.0
04/07:30am 13.1 10.5 10.6 85 1.3 WNW 15 17 8 9 1019.6 1019.6 0.0
04/07:00am 11.7 9.2 9.8 88 1.0 WNW 13 15 7 8 1019.5 1019.5 0.0
04/06:30am 13.0 10.6 10.0 82 1.5 WSW 13 15 7 8 1019.2 1019.2 0.0
04/06:00am 13.1 10.8 10.3 83 1.4 WSW 13 15 7 8 1019.1 1019.1 0.0
04/05:30am 13.6 11.3 10.6 82 1.6 WSW 13 17 7 9 1019.0 1019.0 0.0
04/05:00am 13.6 12.2 10.9 84 1.4 WSW 9 13 5 7 1018.9 1018.9 0.0
04/04:30am 13.8 12.4 11.0 83 1.5 SW 9 13 5 7 1018.9 1018.9 0.0
04/04:00am 14.2 13.6 11.7 85 1.3 SW 6 7 3 4 1018.8 1018.8 0.0
04/03:30am 14.7 13.2 11.8 83 1.6 SW 11 13 6 7 1019.0 1019.0 0.0
04/03:00am 15.4 14.0 12.3 82 1.7 SW 11 15 6 8 1019.3 1019.3 0.0
04/02:30am 15.5 14.6 12.6 83 1.6 SW 9 13 5 7 1019.6 1019.6 0.0
04/02:00am 15.9 15.1 12.8 82 1.7 SSW 9 13 5 7 1019.8 1019.8 0.0
04/01:30am 16.3 14.8 13.2 82 1.7 SW 13 17 7 9 1020.2 1020.2 0.0
04/01:00am 15.5 14.2 12.6 83 1.6 SSW 11 15 6 8 1020.0 1020.0 0.0
04/12:30am 15.2 14.2 12.3 83 1.6 SW 9 11 5 6 1020.3 1020.3 0.0
04/12:00am 15.1 14.1 12.2 83 1.6 SW 9 13 5 7 1020.4 1020.4 0.0
 
Date/Time
CDT
Temp
°C
App
Temp
°C
Dew
Point
Rel
Hum
%
Delta-T
°C
Wind Press
QNH
hPa
Press
MSL
hPa
Rain
since 9 am
mm
Dir
 
Spd
km/h
Gust
km/h
Spd
kts
Gust
kts
03/11:30pm 14.9 13.5 12.2 84 1.5 WSW 11 13 6 7 1020.5 1020.5 0.0
03/11:00pm 15.4 14.0 12.2 81 1.7 SW 11 15 6 8 1020.5 1020.5 0.0
03/10:30pm 15.8 14.0 12.2 79 2.0 SW 13 17 7 9 1020.6 1020.6 0.0
03/10:00pm 16.5 14.0 12.3 76 2.3 SSW 17 22 9 12 1020.4 1020.4 0.0
03/09:30pm 16.9 14.0 12.2 74 2.6 SSW 19 22 10 12 1020.0 1020.0 0.0
03/09:00pm 17.3 14.3 11.8 70 3.0 SSW 19 24 10 13 1019.8 1019.8 0.0
03/08:30pm 17.8 14.1 11.6 67 3.4 SSW 22 30 12 16 1019.5 1019.5 0.0
03/08:00pm 18.1 13.6 11.4 65 3.7 S 26 35 14 19 1019.0 1019.0 0.0
03/07:30pm 18.7 13.9 11.5 63 3.9 S 28 32 15 17 1018.7 1018.7 0.0
03/07:00pm 20.0 15.3 12.0 60 4.5 S 28 33 15 18 1018.4 1018.4 0.0
03/06:30pm 20.4 15.8 11.1 55 5.1 S 26 33 14 18 1018.4 1018.4 0.0
03/06:00pm 21.2 16.4 11.5 54 5.4 S 28 35 15 19 1018.3 1018.3 0.0
03/05:30pm 21.9 17.1 11.6 52 5.7 S 28 32 15 17 1018.1 1018.1 0.0
03/05:00pm 22.2 18.2 11.9 52 5.8 SE 24 30 13 16 1018.0 1018.0 0.0
03/04:30pm 21.7 17.8 12.0 54 5.4 SE 24 30 13 16 1018.0 1018.0 0.0
03/04:00pm 21.8 17.7 11.5 52 5.7 SE 24 30 13 16 1018.3 1018.3 0.0
03/03:30pm 21.4 17.5 12.0 55 5.3 SE 24 30 13 16 1018.7 1018.7 0.0
03/03:00pm 22.0 17.8 11.1 50 6.0 SE 24 33 13 18 1018.6 1018.6 0.0
03/02:30pm 21.4 16.9 11.4 53 5.5 SE 26 35 14 19 1018.8 1018.8 0.0
03/02:00pm 20.6 16.4 11.2 55 5.2 SE 24 32 13 17 1019.0 1019.0 0.0
03/01:30pm 21.6 17.7 12.2 55 5.3 SE 24 30 13 16 1019.1 1019.1 0.0
03/01:00pm 21.9 18.0 12.2 54 5.5 SE 24 35 13 19 1019.4 1019.4 0.0
03/12:30pm 21.2 17.3 12.1 56 5.1 SE 24 33 13 18 1019.9 1019.9 0.0
03/12:00pm 21.9 18.7 13.0 57 5.1 SE 22 32 12 17 1020.2 1020.2 0.0
03/11:30am 19.9 16.1 12.4 62 4.2 SE 24 32 13 17 1020.2 1020.2 0.0
03/11:00am 20.6 17.0 13.1 62 4.3 SE 24 32 13 17 1020.0 1020.0 0.0
03/10:30am 20.9 18.1 13.1 61 4.4 SE 20 26 11 14 1020.1 1020.1 0.0
03/10:00am 19.0 15.9 12.3 65 3.7 SSE 20 26 11 14 1020.2 1020.2 0.0
03/09:30am 18.6 15.2 12.6 68 3.3 SSE 22 30 12 16 1020.0 1020.0 0.0
03/09:00am 18.4 15.1 12.8 70 3.1 SSE 22 28 12 15 1019.9 1019.9 0.0
03/08:30am 17.9 14.7 13.0 73 2.7 SSE 22 28 12 15 1019.4 1019.4 0.0
03/08:00am 17.4 14.2 13.1 76 2.4 SSE 22 26 12 14 1018.8 1018.8 0.0
03/07:30am 17.0 14.1 12.9 77 2.3 SSE 20 26 11 14 1018.6 1018.6 0.0
03/07:00am 16.7 13.5 13.0 79 2.1 SSE 22 28 12 15 1018.0 1018.0 0.0
03/06:30am 16.7 13.8 12.8 78 2.2 SSE 20 22 11 12 1017.7 1017.7 0.0
03/06:00am 16.7 13.4 12.8 78 2.2 SSE 22 28 12 15 1017.4 1017.4 0.0
03/05:30am 16.9 13.2 12.8 77 2.3 SSE 24 30 13 16 1017.0 1017.0 0.0
03/05:00am 16.9 13.2 12.8 77 2.3 SSE 24 28 13 15 1017.0 1017.0 0.0
03/04:30am 17.0 13.3 12.7 76 2.4 SSE 24 28 13 15 1016.9 1016.9 0.0
03/04:00am 16.6 13.6 12.6 77 2.2 SSE 20 24 11 13 1016.8 1016.8 0.0
03/03:30am 16.8 13.7 12.3 75 2.5 SSE 20 26 11 14 1016.9 1016.9 0.0
03/03:00am 17.1 14.2 12.2 73 2.7 SSE 19 24 10 13 1017.2 1017.2 0.0
03/02:30am 17.2 13.4 12.5 74 2.6 SSE 24 32 13 17 1017.0 1017.0 0.0
03/02:00am 17.3 13.8 12.2 72 2.8 SSE 22 26 12 14 1017.7 1017.7 0.0
03/01:30am 17.3 13.5 12.4 73 2.7 SSE 24 28 13 15 1017.6 1017.6 0.0
03/01:00am 17.6 14.5 13.5 77 2.3 SSE 22 28 12 15 1017.7 1017.7 0.0
03/12:30am 17.5 14.0 13.4 77 2.3 SSE 24 32 13 17 1017.8 1017.8 0.0
03/12:00am 17.7 14.3 13.8 78 2.2 SSE 24 32 13 17 1017.8 1017.8 0.0
 
Date/Time
CDT
Temp
°C
App
Temp
°C
Dew
Point
Rel
Hum
%
Delta-T
°C
Wind Press
QNH
hPa
Press
MSL
hPa
Rain
since 9 am
mm
Dir
 
Spd
km/h
Gust
km/h
Spd
kts
Gust
kts
02/11:30pm 17.7 14.4 14.0 79 2.1 SSE 24 32 13 17 1017.6 1017.6 0.0
02/11:00pm 17.9 15.5 14.4 80 2.0 SSE 20 26 11 14 1018.0 1018.0 0.0
02/10:30pm 17.8 15.3 14.1 79 2.1 SSE 20 28 11 15 1018.0 1018.0 0.0
02/10:00pm 17.8 15.5 14.1 79 2.1 S 19 22 10 12 1018.1 1018.1 0.0
02/09:30pm 17.7 15.3 13.8 78 2.2 SSE 19 22 10 12 1017.7 1017.7 0.0
02/09:00pm 17.7 15.3 13.8 78 2.2 S 19 22 10 12 1017.2 1017.2 0.0
02/08:30pm 17.8 14.9 12.9 73 2.7 S 20 26 11 14 1016.6 1016.6 0.0
02/08:00pm 17.7 13.8 12.2 70 3.0 S 24 30 13 16 1016.5 1016.5 0.0
02/07:30pm 18.1 14.5 13.0 72 2.9 S 24 30 13 16 1016.4 1016.4 0.0
02/07:00pm 18.0 14.2 13.7 76 2.4 SSW 26 32 14 17 1016.0 1016.0 0.0
02/06:30pm 18.4 14.2 13.5 73 2.8 SSW 28 33 15 18 1015.9 1015.9 0.0
02/06:00pm 18.7 14.1 13.6 72 2.9 S 30 35 16 19 1015.4 1015.4 0.0
02/05:30pm 18.8 14.4 14.1 74 2.7 S 30 35 16 19 1015.1 1015.1 0.0
02/05:00pm 19.8 15.6 13.5 67 3.6 S 28 35 15 19 1015.0 1015.0 0.0
02/04:30pm 20.7 17.7 13.6 64 4.1 S 22 26 12 14 1015.3 1015.3 0.0
02/04:00pm 20.6 17.9 14.5 68 3.6 SSE 22 26 12 14 1015.0 1015.0 0.0
02/03:30pm 20.7 17.8 15.0 70 3.4 S 24 28 13 15 1014.9 1014.9 0.0
02/03:00pm 20.6 18.7 15.2 71 3.2 SSE 19 24 10 13 1014.5 1014.5 0.0
02/02:30pm 21.2 20.9 14.4 65 4.0 SSE 9 15 5 8 1014.6 1014.6 0.0
02/02:00pm 20.8 20.7 14.9 69 3.5 SE 9 13 5 7 1014.8 1014.8 0.0
02/01:30pm 20.0 20.0 15.2 74 2.8 SE 9 15 5 8 1015.1 1015.1 0.0
02/01:00pm 20.6 19.2 15.6 73 3.0 S 17 20 9 11 1015.0 1015.0 0.0
02/12:30pm 20.3 20.2 14.9 71 3.2 ESE 9 15 5 8 1015.8 1015.8 0.0
02/12:00pm 20.6 18.6 14.9 70 3.3 SSE 19 26 10 14 1015.2 1015.2 0.0
02/11:30am 20.3 19.5 15.1 72 3.1 SE 13 17 7 9 1015.3 1015.3 0.0
02/11:00am 20.0 18.4 15.0 73 2.9 ESE 17 22 9 12 1015.5 1015.5 0.0
02/10:30am 19.7 17.7 14.9 74 2.8 ESE 19 28 10 15 1014.9 1014.9 0.0
02/10:00am 19.2 17.6 14.9 76 2.5 SE 17 20 9 11 1015.4 1015.4 0.0
02/09:30am 18.7 16.6 14.8 78 2.3 SE 19 26 10 14 1015.4 1015.4 0.0
02/09:00am 18.6 16.2 14.5 77 2.4 SE 20 26 11 14 1014.9 1014.9 0.0
02/08:30am 18.5 17.1 14.6 78 2.3 ESE 15 20 8 11 1015.6 1015.6 0.0
02/08:00am 18.0 17.0 14.7 81 1.9 SE 13 15 7 8 1015.8 1015.8 0.0
02/07:30am 17.2 16.0 14.1 82 1.8 ESE 13 13 7 7 1015.6 1015.6 0.0
02/07:00am 17.2 16.0 14.1 82 1.8 ESE 13 17 7 9 1015.6 1015.6 0.0
02/06:30am 17.2 16.4 13.9 81 1.9 ESE 11 15 6 8 1015.4 1015.4 0.0
02/06:00am 17.4 16.2 13.9 80 2.0 ESE 13 19 7 10 1015.4 1015.4 0.0
02/05:30am 17.3 15.6 13.6 79 2.1 ESE 15 19 8 10 1015.2 1015.2 0.0

Other Formats:

Comma delimited format used in spreadsheet applications
http://www.bom.gov.au/fwo/IDS60801/IDS60801.95661.axf

JavaScript Object Notation format (JSON) in row-major order
http://www.bom.gov.au/fwo/IDS60801/IDS60801.95661.json